sensor_id;sensor_type;location;lat;lon;timestamp;P1;durP1;ratioP1;P2;durP2;ratioP2
76115;SDS011;64847;45.778;12.802;2022-12-07T00:03:32;8.80;;;8.00;;
76115;SDS011;64847;45.778;12.802;2022-12-07T00:05:58;8.43;;;7.50;;
76115;SDS011;64847;45.778;12.802;2022-12-07T00:08:24;8.47;;;7.67;;
76115;SDS011;64847;45.778;12.802;2022-12-07T00:10:49;8.33;;;7.63;;
76115;SDS011;64847;45.778;12.802;2022-12-07T00:13:14;7.73;;;6.80;;
76115;SDS011;64847;45.778;12.802;2022-12-07T00:15:40;7.03;;;6.43;;
76115;SDS011;64847;45.778;12.802;2022-12-07T00:18:05;7.20;;;6.50;;
76115;SDS011;64847;45.778;12.802;2022-12-07T00:20:30;7.20;;;6.50;;
76115;SDS011;64847;45.778;12.802;2022-12-07T00:22:56;7.40;;;6.70;;
76115;SDS011;64847;45.778;12.802;2022-12-07T00:25:21;6.90;;;6.20;;
76115;SDS011;64847;45.778;12.802;2022-12-07T00:27:47;6.83;;;6.17;;
76115;SDS011;64847;45.778;12.802;2022-12-07T00:30:12;6.40;;;5.80;;
76115;SDS011;64847;45.778;12.802;2022-12-07T00:32:38;6.83;;;6.20;;
76115;SDS011;64847;45.778;12.802;2022-12-07T00:35:03;6.03;;;5.53;;
76115;SDS011;64847;45.778;12.802;2022-12-07T00:37:29;6.57;;;5.73;;
76115;SDS011;64847;45.778;12.802;2022-12-07T00:39:54;6.10;;;5.60;;
76115;SDS011;64847;45.778;12.802;2022-12-07T00:42:20;6.00;;;5.13;;
76115;SDS011;64847;45.778;12.802;2022-12-07T00:44:45;5.63;;;5.13;;
76115;SDS011;64847;45.778;12.802;2022-12-07T00:47:10;6.63;;;5.83;;
76115;SDS011;64847;45.778;12.802;2022-12-07T00:49:36;5.90;;;5.40;;
76115;SDS011;64847;45.778;12.802;2022-12-07T00:52:01;5.80;;;5.30;;
76115;SDS011;64847;45.778;12.802;2022-12-07T00:54:27;6.00;;;5.40;;
76115;SDS011;64847;45.778;12.802;2022-12-07T00:56:52;5.97;;;5.47;;
76115;SDS011;64847;45.778;12.802;2022-12-07T00:59:18;5.83;;;5.33;;
76115;SDS011;64847;45.778;12.802;2022-12-07T01:01:43;5.40;;;4.93;;
76115;SDS011;64847;45.778;12.802;2022-12-07T01:04:08;6.00;;;5.43;;
76115;SDS011;64847;45.778;12.802;2022-12-07T01:06:34;5.80;;;5.30;;
76115;SDS011;64847;45.778;12.802;2022-12-07T01:08:59;5.73;;;5.23;;
76115;SDS011;64847;45.778;12.802;2022-12-07T01:11:26;5.90;;;5.30;;
76115;SDS011;64847;45.778;12.802;2022-12-07T01:13:53;5.90;;;5.33;;
76115;SDS011;64847;45.778;12.802;2022-12-07T01:16:20;5.10;;;4.70;;
76115;SDS011;64847;45.778;12.802;2022-12-07T01:18:47;5.23;;;4.80;;
76115;SDS011;64847;45.778;12.802;2022-12-07T01:21:15;5.00;;;4.60;;
76115;SDS011;64847;45.778;12.802;2022-12-07T01:23:42;4.73;;;4.33;;
76115;SDS011;64847;45.778;12.802;2022-12-07T01:26:10;4.20;;;3.90;;
76115;SDS011;64847;45.778;12.802;2022-12-07T01:28:38;4.53;;;4.13;;
76115;SDS011;64847;45.778;12.802;2022-12-07T01:31:04;4.40;;;4.00;;
76115;SDS011;64847;45.778;12.802;2022-12-07T01:33:32;4.13;;;3.73;;
76115;SDS011;64847;45.778;12.802;2022-12-07T01:36:00;3.30;;;3.10;;
76115;SDS011;64847;45.778;12.802;2022-12-07T01:38:47;3.47;;;3.17;;
76115;SDS011;64847;45.778;12.802;2022-12-07T01:41:14;3.47;;;3.17;;
76115;SDS011;64847;45.778;12.802;2022-12-07T01:46:46;3.90;;;3.60;;
76115;SDS011;64847;45.778;12.802;2022-12-07T01:49:18;3.80;;;3.50;;
76115;SDS011;64847;45.778;12.802;2022-12-07T01:51:48;3.60;;;3.30;;
76115;SDS011;64847;45.778;12.802;2022-12-07T01:54:14;3.70;;;3.17;;
76115;SDS011;64847;45.778;12.802;2022-12-07T01:56:42;3.40;;;3.10;;
76115;SDS011;64847;45.778;12.802;2022-12-07T01:59:18;3.43;;;3.23;;
76115;SDS011;64847;45.778;12.802;2022-12-07T02:01:45;3.10;;;2.90;;
76115;SDS011;64847;45.778;12.802;2022-12-07T02:04:10;3.10;;;2.90;;
76115;SDS011;64847;45.778;12.802;2022-12-07T02:06:36;3.20;;;3.00;;
76115;SDS011;64847;45.778;12.802;2022-12-07T02:09:02;3.50;;;3.20;;
76115;SDS011;64847;45.778;12.802;2022-12-07T02:11:27;4.03;;;3.53;;
76115;SDS011;64847;45.778;12.802;2022-12-07T02:13:53;3.40;;;3.20;;
76115;SDS011;64847;45.778;12.802;2022-12-07T02:32:26;3.67;;;3.37;;
76115;SDS011;64847;45.778;12.802;2022-12-07T02:34:56;3.57;;;3.27;;
76115;SDS011;64847;45.778;12.802;2022-12-07T02:40:05;3.43;;;3.17;;
76115;SDS011;64847;45.778;12.802;2022-12-07T02:42:44;3.90;;;3.43;;
76115;SDS011;64847;45.778;12.802;2022-12-07T02:45:13;2.90;;;2.70;;
76115;SDS011;64847;45.778;12.802;2022-12-07T02:47:40;3.60;;;3.30;;
76115;SDS011;64847;45.778;12.802;2022-12-07T02:50:06;3.30;;;3.00;;
76115;SDS011;64847;45.778;12.802;2022-12-07T02:52:32;2.90;;;2.70;;
76115;SDS011;64847;45.778;12.802;2022-12-07T02:54:57;3.00;;;2.80;;
76115;SDS011;64847;45.778;12.802;2022-12-07T02:57:30;2.97;;;2.77;;
76115;SDS011;64847;45.778;12.802;2022-12-07T03:00:12;3.17;;;2.90;;
76115;SDS011;64847;45.778;12.802;2022-12-07T03:02:51;3.03;;;2.83;;
76115;SDS011;64847;45.778;12.802;2022-12-07T03:16:15;2.67;;;2.47;;
76115;SDS011;64847;45.778;12.802;2022-12-07T03:18:57;2.80;;;2.60;;
76115;SDS011;64847;45.778;12.802;2022-12-07T03:21:26;2.80;;;2.60;;
76115;SDS011;64847;45.778;12.802;2022-12-07T03:23:57;2.80;;;2.60;;
76115;SDS011;64847;45.778;12.802;2022-12-07T03:26:24;3.20;;;3.00;;
76115;SDS011;64847;45.778;12.802;2022-12-07T03:28:56;3.03;;;2.70;;
76115;SDS011;64847;45.778;12.802;2022-12-07T03:31:29;3.40;;;3.07;;
76115;SDS011;64847;45.778;12.802;2022-12-07T03:34:06;3.10;;;2.90;;
76115;SDS011;64847;45.778;12.802;2022-12-07T03:39:24;2.93;;;2.63;;
76115;SDS011;64847;45.778;12.802;2022-12-07T03:41:54;2.67;;;2.47;;
76115;SDS011;64847;45.778;12.802;2022-12-07T03:44:20;2.97;;;2.60;;
76115;SDS011;64847;45.778;12.802;2022-12-07T03:49:28;3.10;;;2.90;;
76115;SDS011;64847;45.778;12.802;2022-12-07T03:52:02;2.60;;;2.40;;
76115;SDS011;64847;45.778;12.802;2022-12-07T03:54:45;2.80;;;2.50;;
76115;SDS011;64847;45.778;12.802;2022-12-07T03:57:14;2.30;;;2.10;;
76115;SDS011;64847;45.778;12.802;2022-12-07T03:59:41;2.40;;;2.20;;
76115;SDS011;64847;45.778;12.802;2022-12-07T04:02:07;2.60;;;2.40;;
76115;SDS011;64847;45.778;12.802;2022-12-07T04:04:32;2.47;;;2.27;;
76115;SDS011;64847;45.778;12.802;2022-12-07T04:06:58;2.10;;;2.00;;
76115;SDS011;64847;45.778;12.802;2022-12-07T04:09:24;2.43;;;2.10;;
76115;SDS011;64847;45.778;12.802;2022-12-07T04:11:49;2.00;;;1.90;;
76115;SDS011;64847;45.778;12.802;2022-12-07T04:14:15;2.37;;;2.20;;
76115;SDS011;64847;45.778;12.802;2022-12-07T04:16:43;2.50;;;2.30;;
76115;SDS011;64847;45.778;12.802;2022-12-07T04:19:12;2.20;;;2.10;;
76115;SDS011;64847;45.778;12.802;2022-12-07T04:21:38;2.37;;;2.27;;
76115;SDS011;64847;45.778;12.802;2022-12-07T04:24:04;2.10;;;2.00;;
76115;SDS011;64847;45.778;12.802;2022-12-07T04:26:29;2.50;;;2.30;;
76115;SDS011;64847;45.778;12.802;2022-12-07T04:28:55;2.30;;;2.20;;
76115;SDS011;64847;45.778;12.802;2022-12-07T04:31:20;2.43;;;2.23;;
76115;SDS011;64847;45.778;12.802;2022-12-07T04:33:46;2.27;;;2.07;;
76115;SDS011;64847;45.778;12.802;2022-12-07T04:36:11;2.93;;;2.30;;
76115;SDS011;64847;45.778;12.802;2022-12-07T04:38:36;2.00;;;1.90;;
76115;SDS011;64847;45.778;12.802;2022-12-07T04:41:05;2.23;;;2.10;;
76115;SDS011;64847;45.778;12.802;2022-12-07T04:43:32;2.40;;;2.20;;
76115;SDS011;64847;45.778;12.802;2022-12-07T04:45:57;2.20;;;2.10;;
76115;SDS011;64847;45.778;12.802;2022-12-07T04:48:23;2.13;;;2.00;;
76115;SDS011;64847;45.778;12.802;2022-12-07T04:50:48;2.13;;;2.03;;
76115;SDS011;64847;45.778;12.802;2022-12-07T04:53:17;1.83;;;1.73;;
76115;SDS011;64847;45.778;12.802;2022-12-07T04:55:43;2.07;;;1.97;;
76115;SDS011;64847;45.778;12.802;2022-12-07T04:58:09;2.10;;;2.00;;
76115;SDS011;64847;45.778;12.802;2022-12-07T05:00:34;1.73;;;1.63;;
76115;SDS011;64847;45.778;12.802;2022-12-07T05:03:00;2.17;;;1.97;;
76115;SDS011;64847;45.778;12.802;2022-12-07T05:05:25;2.30;;;2.10;;
76115;SDS011;64847;45.778;12.802;2022-12-07T05:07:50;4.23;;;2.27;;
76115;SDS011;64847;45.778;12.802;2022-12-07T05:10:16;2.40;;;2.20;;
76115;SDS011;64847;45.778;12.802;2022-12-07T05:12:41;2.43;;;2.23;;
76115;SDS011;64847;45.778;12.802;2022-12-07T05:15:07;2.27;;;2.03;;
76115;SDS011;64847;45.778;12.802;2022-12-07T05:17:32;2.53;;;2.33;;
76115;SDS011;64847;45.778;12.802;2022-12-07T05:19:58;3.00;;;2.60;;
76115;SDS011;64847;45.778;12.802;2022-12-07T05:22:23;2.37;;;2.27;;
76115;SDS011;64847;45.778;12.802;2022-12-07T05:24:53;2.67;;;2.47;;
76115;SDS011;64847;45.778;12.802;2022-12-07T05:27:19;2.67;;;2.47;;
76115;SDS011;64847;45.778;12.802;2022-12-07T05:29:44;2.90;;;2.70;;
76115;SDS011;64847;45.778;12.802;2022-12-07T05:32:09;2.83;;;2.47;;
76115;SDS011;64847;45.778;12.802;2022-12-07T05:34:35;2.63;;;2.13;;
76115;SDS011;64847;45.778;12.802;2022-12-07T05:37:00;2.30;;;2.10;;
76115;SDS011;64847;45.778;12.802;2022-12-07T05:39:25;2.27;;;2.10;;
76115;SDS011;64847;45.778;12.802;2022-12-07T05:41:51;2.10;;;2.00;;
76115;SDS011;64847;45.778;12.802;2022-12-07T05:44:35;2.20;;;2.00;;
76115;SDS011;64847;45.778;12.802;2022-12-07T05:47:00;1.90;;;1.80;;
76115;SDS011;64847;45.778;12.802;2022-12-07T05:49:25;2.27;;;2.10;;
76115;SDS011;64847;45.778;12.802;2022-12-07T05:51:51;2.10;;;1.87;;
76115;SDS011;64847;45.778;12.802;2022-12-07T05:54:17;1.93;;;1.83;;
76115;SDS011;64847;45.778;12.802;2022-12-07T05:56:42;1.47;;;1.47;;
76115;SDS011;64847;45.778;12.802;2022-12-07T05:59:08;1.73;;;1.63;;
76115;SDS011;64847;45.778;12.802;2022-12-07T06:01:56;1.90;;;1.73;;
76115;SDS011;64847;45.778;12.802;2022-12-07T06:04:26;2.10;;;1.90;;
76115;SDS011;64847;45.778;12.802;2022-12-07T06:06:55;1.60;;;1.50;;
76115;SDS011;64847;45.778;12.802;2022-12-07T06:09:22;1.80;;;1.70;;
76115;SDS011;64847;45.778;12.802;2022-12-07T06:11:48;1.50;;;1.50;;
76115;SDS011;64847;45.778;12.802;2022-12-07T06:14:32;1.80;;;1.50;;
76115;SDS011;64847;45.778;12.802;2022-12-07T06:16:58;1.73;;;1.63;;
76115;SDS011;64847;45.778;12.802;2022-12-07T06:19:24;1.60;;;1.50;;
76115;SDS011;64847;45.778;12.802;2022-12-07T06:21:49;1.50;;;1.50;;
76115;SDS011;64847;45.778;12.802;2022-12-07T06:24:15;4.87;;;1.80;;
76115;SDS011;64847;45.778;12.802;2022-12-07T06:26:41;1.70;;;1.60;;
76115;SDS011;64847;45.778;12.802;2022-12-07T06:29:07;2.47;;;1.60;;
76115;SDS011;64847;45.778;12.802;2022-12-07T06:31:33;1.60;;;1.50;;
76115;SDS011;64847;45.778;12.802;2022-12-07T06:33:59;1.50;;;1.40;;
76115;SDS011;64847;45.778;12.802;2022-12-07T06:36:25;1.73;;;1.67;;
76115;SDS011;64847;45.778;12.802;2022-12-07T06:38:50;1.77;;;1.67;;
76115;SDS011;64847;45.778;12.802;2022-12-07T06:41:16;1.90;;;1.80;;
76115;SDS011;64847;45.778;12.802;2022-12-07T06:43:41;2.70;;;1.67;;
76115;SDS011;64847;45.778;12.802;2022-12-07T06:46:07;1.87;;;1.70;;
76115;SDS011;64847;45.778;12.802;2022-12-07T06:48:32;1.70;;;1.60;;
76115;SDS011;64847;45.778;12.802;2022-12-07T06:50:58;1.63;;;1.53;;
76115;SDS011;64847;45.778;12.802;2022-12-07T06:53:23;1.50;;;1.50;;
76115;SDS011;64847;45.778;12.802;2022-12-07T06:55:48;1.60;;;1.50;;
76115;SDS011;64847;45.778;12.802;2022-12-07T06:58:14;1.50;;;1.50;;
76115;SDS011;64847;45.778;12.802;2022-12-07T07:00:39;3.80;;;1.70;;
76115;SDS011;64847;45.778;12.802;2022-12-07T07:03:05;1.70;;;1.60;;
76115;SDS011;64847;45.778;12.802;2022-12-07T07:05:31;1.60;;;1.50;;
76115;SDS011;64847;45.778;12.802;2022-12-07T07:07:56;1.73;;;1.63;;
76115;SDS011;64847;45.778;12.802;2022-12-07T07:10:21;1.93;;;1.83;;
76115;SDS011;64847;45.778;12.802;2022-12-07T07:12:47;1.80;;;1.70;;
76115;SDS011;64847;45.778;12.802;2022-12-07T07:15:12;1.87;;;1.50;;
76115;SDS011;64847;45.778;12.802;2022-12-07T07:17:38;2.07;;;1.90;;
76115;SDS011;64847;45.778;12.802;2022-12-07T07:20:03;1.77;;;1.67;;
76115;SDS011;64847;45.778;12.802;2022-12-07T07:22:29;2.10;;;2.00;;
76115;SDS011;64847;45.778;12.802;2022-12-07T07:24:55;2.00;;;1.90;;
76115;SDS011;64847;45.778;12.802;2022-12-07T07:27:20;1.63;;;1.60;;
76115;SDS011;64847;45.778;12.802;2022-12-07T07:29:46;1.90;;;1.80;;
76115;SDS011;64847;45.778;12.802;2022-12-07T07:32:11;1.60;;;1.50;;
76115;SDS011;64847;45.778;12.802;2022-12-07T07:34:37;1.87;;;1.77;;
76115;SDS011;64847;45.778;12.802;2022-12-07T07:37:02;1.40;;;1.40;;
76115;SDS011;64847;45.778;12.802;2022-12-07T07:39:28;1.73;;;1.63;;
76115;SDS011;64847;45.778;12.802;2022-12-07T07:41:53;1.90;;;1.80;;
76115;SDS011;64847;45.778;12.802;2022-12-07T07:44:19;1.60;;;1.50;;
76115;SDS011;64847;45.778;12.802;2022-12-07T07:46:44;1.50;;;1.40;;
76115;SDS011;64847;45.778;12.802;2022-12-07T07:49:10;1.80;;;1.70;;
76115;SDS011;64847;45.778;12.802;2022-12-07T07:51:36;1.80;;;1.70;;
76115;SDS011;64847;45.778;12.802;2022-12-07T07:54:01;1.70;;;1.60;;
76115;SDS011;64847;45.778;12.802;2022-12-07T07:56:27;1.60;;;1.50;;
76115;SDS011;64847;45.778;12.802;2022-12-07T07:58:53;1.73;;;1.60;;
76115;SDS011;64847;45.778;12.802;2022-12-07T08:01:18;1.47;;;1.43;;
76115;SDS011;64847;45.778;12.802;2022-12-07T08:03:46;1.93;;;1.80;;
76115;SDS011;64847;45.778;12.802;2022-12-07T08:06:12;1.70;;;1.60;;
76115;SDS011;64847;45.778;12.802;2022-12-07T08:08:38;1.90;;;1.80;;
76115;SDS011;64847;45.778;12.802;2022-12-07T08:11:07;1.80;;;1.70;;
76115;SDS011;64847;45.778;12.802;2022-12-07T08:13:33;1.83;;;1.73;;
76115;SDS011;64847;45.778;12.802;2022-12-07T08:15:58;1.70;;;1.60;;
76115;SDS011;64847;45.778;12.802;2022-12-07T08:18:37;2.13;;;1.80;;
76115;SDS011;64847;45.778;12.802;2022-12-07T08:21:03;1.80;;;1.70;;
76115;SDS011;64847;45.778;12.802;2022-12-07T08:23:29;1.87;;;1.77;;
76115;SDS011;64847;45.778;12.802;2022-12-07T08:25:55;1.87;;;1.70;;
76115;SDS011;64847;45.778;12.802;2022-12-07T08:28:24;1.53;;;1.47;;
76115;SDS011;64847;45.778;12.802;2022-12-07T08:30:50;1.80;;;1.70;;
76115;SDS011;64847;45.778;12.802;2022-12-07T08:33:15;2.03;;;1.93;;
76115;SDS011;64847;45.778;12.802;2022-12-07T08:35:41;2.00;;;1.90;;
76115;SDS011;64847;45.778;12.802;2022-12-07T08:38:06;1.97;;;1.80;;
76115;SDS011;64847;45.778;12.802;2022-12-07T08:40:31;1.83;;;1.73;;
76115;SDS011;64847;45.778;12.802;2022-12-07T08:42:57;2.37;;;2.17;;
76115;SDS011;64847;45.778;12.802;2022-12-07T08:45:22;2.27;;;2.07;;
76115;SDS011;64847;45.778;12.802;2022-12-07T08:47:53;2.10;;;2.00;;
76115;SDS011;64847;45.778;12.802;2022-12-07T08:50:21;2.13;;;2.00;;
76115;SDS011;64847;45.778;12.802;2022-12-07T08:52:54;2.40;;;2.20;;
76115;SDS011;64847;45.778;12.802;2022-12-07T08:55:21;1.77;;;1.67;;
76115;SDS011;64847;45.778;12.802;2022-12-07T08:57:46;2.20;;;2.10;;
76115;SDS011;64847;45.778;12.802;2022-12-07T09:00:12;2.40;;;2.20;;
76115;SDS011;64847;45.778;12.802;2022-12-07T09:02:38;2.23;;;2.13;;
76115;SDS011;64847;45.778;12.802;2022-12-07T09:05:04;2.53;;;2.33;;
76115;SDS011;64847;45.778;12.802;2022-12-07T09:07:30;2.40;;;2.30;;
76115;SDS011;64847;45.778;12.802;2022-12-07T09:09:56;2.20;;;2.10;;
76115;SDS011;64847;45.778;12.802;2022-12-07T09:12:21;2.40;;;2.20;;
76115;SDS011;64847;45.778;12.802;2022-12-07T09:14:47;2.40;;;2.30;;
76115;SDS011;64847;45.778;12.802;2022-12-07T09:17:12;2.10;;;2.00;;
76115;SDS011;64847;45.778;12.802;2022-12-07T09:19:38;2.10;;;2.00;;
76115;SDS011;64847;45.778;12.802;2022-12-07T09:22:04;2.83;;;2.05;;
76115;SDS011;64847;45.778;12.802;2022-12-07T09:24:30;1.83;;;1.83;;
76115;SDS011;64847;45.778;12.802;2022-12-07T09:26:56;1.70;;;1.60;;
76115;SDS011;64847;45.778;12.802;2022-12-07T09:29:22;1.80;;;1.70;;
76115;SDS011;64847;45.778;12.802;2022-12-07T09:31:48;1.85;;;1.75;;
76115;SDS011;64847;45.778;12.802;2022-12-07T09:34:16;1.88;;;1.77;;
76115;SDS011;64847;45.778;12.802;2022-12-07T09:36:41;1.90;;;1.80;;
76115;SDS011;64847;45.778;12.802;2022-12-07T09:39:07;1.40;;;1.40;;
76115;SDS011;64847;45.778;12.802;2022-12-07T09:41:33;1.83;;;1.73;;
76115;SDS011;64847;45.778;12.802;2022-12-07T09:44:04;1.88;;;1.88;;
76115;SDS011;64847;45.778;12.802;2022-12-07T09:46:40;1.88;;;1.77;;
76115;SDS011;64847;45.778;12.802;2022-12-07T09:49:14;1.63;;;1.52;;
76115;SDS011;64847;45.778;12.802;2022-12-07T09:51:42;1.75;;;1.65;;
76115;SDS011;64847;45.778;12.802;2022-12-07T09:54:08;1.60;;;1.50;;
76115;SDS011;64847;45.778;12.802;2022-12-07T09:56:41;1.63;;;1.58;;
76115;SDS011;64847;45.778;12.802;2022-12-07T09:59:09;2.17;;;1.58;;
76115;SDS011;64847;45.778;12.802;2022-12-07T10:01:39;1.90;;;1.80;;
76115;SDS011;64847;45.778;12.802;2022-12-07T10:04:12;1.90;;;1.80;;
76115;SDS011;64847;45.778;12.802;2022-12-07T10:06:40;1.70;;;1.70;;
76115;SDS011;64847;45.778;12.802;2022-12-07T10:09:10;1.42;;;1.42;;
76115;SDS011;64847;45.778;12.802;2022-12-07T10:14:28;1.55;;;1.55;;
76115;SDS011;64847;45.778;12.802;2022-12-07T10:16:55;1.50;;;1.50;;
76115;SDS011;64847;45.778;12.802;2022-12-07T10:19:25;1.50;;;1.50;;
76115;SDS011;64847;45.778;12.802;2022-12-07T10:24:42;1.67;;;1.60;;
76115;SDS011;64847;45.778;12.802;2022-12-07T10:27:19;1.80;;;1.70;;
76115;SDS011;64847;45.778;12.802;2022-12-07T10:29:55;1.45;;;1.45;;
76115;SDS011;64847;45.778;12.802;2022-12-07T10:32:32;1.60;;;1.50;;
76115;SDS011;64847;45.778;12.802;2022-12-07T10:37:45;1.50;;;1.50;;
76115;SDS011;64847;45.778;12.802;2022-12-07T10:45:41;1.50;;;1.50;;
76115;SDS011;64847;45.778;12.802;2022-12-07T10:48:37;1.60;;;1.60;;
76115;SDS011;64847;45.778;12.802;2022-12-07T10:51:42;1.58;;;1.58;;
76115;SDS011;64847;45.778;12.802;2022-12-07T11:02:31;1.40;;;1.40;;
76115;SDS011;64847;45.778;12.802;2022-12-07T11:05:06;1.38;;;1.38;;
76115;SDS011;64847;45.778;12.802;2022-12-07T11:26:17;1.70;;;1.67;;
76115;SDS011;64847;45.778;12.802;2022-12-07T11:34:20;2.03;;;1.92;;
76115;SDS011;64847;45.778;12.802;2022-12-07T11:36:53;2.33;;;2.08;;
76115;SDS011;64847;45.778;12.802;2022-12-07T11:41:54;2.00;;;1.85;;
76115;SDS011;64847;45.778;12.802;2022-12-07T11:44:47;2.00;;;1.90;;
76115;SDS011;64847;45.778;12.802;2022-12-07T11:47:20;1.77;;;1.77;;
76115;SDS011;64847;45.778;12.802;2022-12-07T11:55:06;1.90;;;1.80;;
76115;SDS011;64847;45.778;12.802;2022-12-07T11:57:43;2.10;;;2.00;;
76115;SDS011;64847;45.778;12.802;2022-12-07T12:00:14;2.05;;;1.92;;
76115;SDS011;64847;45.778;12.802;2022-12-07T12:02:43;2.30;;;2.20;;
76115;SDS011;64847;45.778;12.802;2022-12-07T12:05:50;1.90;;;1.80;;
76115;SDS011;64847;45.778;12.802;2022-12-07T12:08:17;2.08;;;1.98;;
76115;SDS011;64847;45.778;12.802;2022-12-07T12:21:53;2.08;;;1.98;;
76115;SDS011;64847;45.778;12.802;2022-12-07T12:24:25;2.15;;;2.05;;
76115;SDS011;64847;45.778;12.802;2022-12-07T12:27:15;2.30;;;2.20;;
76115;SDS011;64847;45.778;12.802;2022-12-07T12:29:50;2.13;;;2.03;;
76115;SDS011;64847;45.778;12.802;2022-12-07T12:32:19;2.15;;;1.90;;
76115;SDS011;64847;45.778;12.802;2022-12-07T12:42:56;2.20;;;2.00;;
76115;SDS011;64847;45.778;12.802;2022-12-07T12:45:26;2.25;;;2.15;;
76115;SDS011;64847;45.778;12.802;2022-12-07T12:54:05;2.08;;;1.98;;
76115;SDS011;64847;45.778;12.802;2022-12-07T13:01:48;1.90;;;1.80;;
76115;SDS011;64847;45.778;12.802;2022-12-07T13:04:29;1.75;;;1.75;;
76115;SDS011;64847;45.778;12.802;2022-12-07T13:07:00;2.10;;;2.00;;
76115;SDS011;64847;45.778;12.802;2022-12-07T13:09:26;1.98;;;1.88;;
76115;SDS011;64847;45.778;12.802;2022-12-07T13:12:01;2.00;;;1.90;;
76115;SDS011;64847;45.778;12.802;2022-12-07T13:27:37;1.80;;;1.70;;
76115;SDS011;64847;45.778;12.802;2022-12-07T13:30:09;1.53;;;1.53;;
76115;SDS011;64847;45.778;12.802;2022-12-07T13:32:39;1.60;;;1.53;;
76115;SDS011;64847;45.778;12.802;2022-12-07T13:37:55;1.93;;;1.83;;
76115;SDS011;64847;45.778;12.802;2022-12-07T13:40:21;1.80;;;1.70;;
76115;SDS011;64847;45.778;12.802;2022-12-07T13:42:47;1.80;;;1.70;;
76115;SDS011;64847;45.778;12.802;2022-12-07T13:45:23;2.07;;;1.97;;
76115;SDS011;64847;45.778;12.802;2022-12-07T13:50:43;1.70;;;1.60;;
76115;SDS011;64847;45.778;12.802;2022-12-07T13:53:17;1.70;;;1.60;;
76115;SDS011;64847;45.778;12.802;2022-12-07T13:55:46;1.90;;;1.80;;
76115;SDS011;64847;45.778;12.802;2022-12-07T13:58:12;1.77;;;1.67;;
76115;SDS011;64847;45.778;12.802;2022-12-07T14:00:39;1.90;;;1.80;;
76115;SDS011;64847;45.778;12.802;2022-12-07T14:05:37;1.93;;;1.83;;
76115;SDS011;64847;45.778;12.802;2022-12-07T14:08:04;2.00;;;1.90;;
76115;SDS011;64847;45.778;12.802;2022-12-07T14:13:33;1.50;;;1.50;;
76115;SDS011;64847;45.778;12.802;2022-12-07T14:18:50;1.50;;;1.50;;
76115;SDS011;64847;45.778;12.802;2022-12-07T14:21:17;1.80;;;1.70;;
76115;SDS011;64847;45.778;12.802;2022-12-07T14:26:42;1.87;;;1.77;;
76115;SDS011;64847;45.778;12.802;2022-12-07T14:31:53;1.87;;;1.80;;
76115;SDS011;64847;45.778;12.802;2022-12-07T14:34:19;1.57;;;1.57;;
76115;SDS011;64847;45.778;12.802;2022-12-07T14:36:45;1.90;;;1.80;;
76115;SDS011;64847;45.778;12.802;2022-12-07T14:39:11;2.10;;;2.00;;
76115;SDS011;64847;45.778;12.802;2022-12-07T14:41:36;2.10;;;1.90;;
76115;SDS011;64847;45.778;12.802;2022-12-07T14:44:18;1.77;;;1.70;;
76115;SDS011;64847;45.778;12.802;2022-12-07T14:46:48;2.10;;;2.00;;
76115;SDS011;64847;45.778;12.802;2022-12-07T14:49:14;1.80;;;1.70;;
76115;SDS011;64847;45.778;12.802;2022-12-07T14:51:39;2.00;;;1.90;;
76115;SDS011;64847;45.778;12.802;2022-12-07T14:54:06;1.90;;;1.80;;
76115;SDS011;64847;45.778;12.802;2022-12-07T14:56:38;1.90;;;1.80;;
76115;SDS011;64847;45.778;12.802;2022-12-07T14:59:03;2.27;;;1.90;;
76115;SDS011;64847;45.778;12.802;2022-12-07T15:01:28;3.23;;;2.03;;
76115;SDS011;64847;45.778;12.802;2022-12-07T15:03:54;2.23;;;2.10;;
76115;SDS011;64847;45.778;12.802;2022-12-07T15:06:19;2.10;;;2.00;;
76115;SDS011;64847;45.778;12.802;2022-12-07T15:08:45;2.17;;;2.07;;
76115;SDS011;64847;45.778;12.802;2022-12-07T15:11:13;2.10;;;2.00;;
76115;SDS011;64847;45.778;12.802;2022-12-07T15:13:40;1.90;;;1.80;;
76115;SDS011;64847;45.778;12.802;2022-12-07T15:16:23;2.33;;;2.17;;
76115;SDS011;64847;45.778;12.802;2022-12-07T15:18:49;1.77;;;1.67;;
76115;SDS011;64847;45.778;12.802;2022-12-07T15:21:14;2.30;;;2.10;;
76115;SDS011;64847;45.778;12.802;2022-12-07T15:23:41;2.20;;;2.10;;
76115;SDS011;64847;45.778;12.802;2022-12-07T15:26:06;2.00;;;1.90;;
76115;SDS011;64847;45.778;12.802;2022-12-07T15:28:33;2.43;;;2.23;;
76115;SDS011;64847;45.778;12.802;2022-12-07T15:30:58;2.40;;;2.20;;
76115;SDS011;64847;45.778;12.802;2022-12-07T15:33:24;2.07;;;1.97;;
76115;SDS011;64847;45.778;12.802;2022-12-07T15:35:49;2.30;;;2.20;;
76115;SDS011;64847;45.778;12.802;2022-12-07T15:38:15;2.33;;;2.13;;
76115;SDS011;64847;45.778;12.802;2022-12-07T15:40:40;2.37;;;2.27;;
76115;SDS011;64847;45.778;12.802;2022-12-07T15:43:07;2.70;;;2.50;;
76115;SDS011;64847;45.778;12.802;2022-12-07T15:45:53;2.87;;;2.67;;
76115;SDS011;64847;45.778;12.802;2022-12-07T15:48:19;2.70;;;2.50;;
76115;SDS011;64847;45.778;12.802;2022-12-07T15:50:44;2.87;;;2.70;;
76115;SDS011;64847;45.778;12.802;2022-12-07T15:53:09;2.77;;;2.57;;
76115;SDS011;64847;45.778;12.802;2022-12-07T15:55:35;2.90;;;2.70;;
76115;SDS011;64847;45.778;12.802;2022-12-07T15:58:03;4.77;;;3.43;;
76115;SDS011;64847;45.778;12.802;2022-12-07T16:00:29;3.60;;;3.30;;
76115;SDS011;64847;45.778;12.802;2022-12-07T16:02:54;4.10;;;3.70;;
76115;SDS011;64847;45.778;12.802;2022-12-07T16:05:19;3.53;;;3.23;;
76115;SDS011;64847;45.778;12.802;2022-12-07T16:07:45;5.17;;;3.60;;
76115;SDS011;64847;45.778;12.802;2022-12-07T16:10:12;4.13;;;3.73;;
76115;SDS011;64847;45.778;12.802;2022-12-07T16:12:37;4.40;;;4.00;;
76115;SDS011;64847;45.778;12.802;2022-12-07T16:15:03;4.93;;;4.47;;
76115;SDS011;64847;45.778;12.802;2022-12-07T16:17:29;4.37;;;4.07;;
76115;SDS011;64847;45.778;12.802;2022-12-07T16:19:54;6.77;;;4.37;;
76115;SDS011;64847;45.778;12.802;2022-12-07T16:22:20;4.63;;;4.23;;
76115;SDS011;64847;45.778;12.802;2022-12-07T16:24:45;4.60;;;4.20;;
76115;SDS011;64847;45.778;12.802;2022-12-07T16:27:11;4.77;;;4.37;;
76115;SDS011;64847;45.778;12.802;2022-12-07T16:29:39;5.00;;;4.50;;
76115;SDS011;64847;45.778;12.802;2022-12-07T16:32:04;6.17;;;4.07;;
76115;SDS011;64847;45.778;12.802;2022-12-07T16:34:30;4.30;;;4.00;;
76115;SDS011;64847;45.778;12.802;2022-12-07T16:36:55;4.00;;;3.70;;
76115;SDS011;64847;45.778;12.802;2022-12-07T16:39:20;4.60;;;4.20;;
76115;SDS011;64847;45.778;12.802;2022-12-07T16:41:46;4.93;;;4.53;;
76115;SDS011;64847;45.778;12.802;2022-12-07T16:44:13;4.90;;;4.50;;
76115;SDS011;64847;45.778;12.802;2022-12-07T16:46:38;4.70;;;4.30;;
76115;SDS011;64847;45.778;12.802;2022-12-07T16:49:04;4.90;;;4.50;;
76115;SDS011;64847;45.778;12.802;2022-12-07T16:51:30;3.90;;;3.60;;
76115;SDS011;64847;45.778;12.802;2022-12-07T16:53:56;3.90;;;3.60;;
76115;SDS011;64847;45.778;12.802;2022-12-07T16:56:21;4.30;;;3.90;;
76115;SDS011;64847;45.778;12.802;2022-12-07T16:58:47;4.03;;;3.73;;
76115;SDS011;64847;45.778;12.802;2022-12-07T17:01:18;4.17;;;3.87;;
76115;SDS011;64847;45.778;12.802;2022-12-07T17:03:45;4.30;;;3.90;;
76115;SDS011;64847;45.778;12.802;2022-12-07T17:06:11;3.67;;;3.37;;
76115;SDS011;64847;45.778;12.802;2022-12-07T17:08:37;5.00;;;4.13;;
76115;SDS011;64847;45.778;12.802;2022-12-07T17:11:02;4.60;;;4.20;;
76115;SDS011;64847;45.778;12.802;2022-12-07T17:13:35;4.57;;;4.23;;
76115;SDS011;64847;45.778;12.802;2022-12-07T17:16:18;4.33;;;3.93;;